sensor_id;sensor_type;location;lat;lon;timestamp;P1;durP1;ratioP1;P2;durP2;ratioP2
42124;SDS011;27787;44.594;11.046;2023-11-19T00:02:16;8.55;;;4.70;;
42124;SDS011;27787;44.594;11.046;2023-11-19T00:05:00;10.18;;;4.78;;
42124;SDS011;27787;44.594;11.046;2023-11-19T00:07:43;10.00;;;4.80;;
42124;SDS011;27787;44.594;11.046;2023-11-19T00:10:28;11.10;;;4.70;;
42124;SDS011;27787;44.594;11.046;2023-11-19T00:13:12;10.15;;;4.32;;
42124;SDS011;27787;44.594;11.046;2023-11-19T00:15:56;9.73;;;4.22;;
42124;SDS011;27787;44.594;11.046;2023-11-19T00:18:40;9.02;;;4.50;;
42124;SDS011;27787;44.594;11.046;2023-11-19T00:21:24;10.82;;;3.50;;
42124;SDS011;27787;44.594;11.046;2023-11-19T00:24:11;12.35;;;4.07;;
42124;SDS011;27787;44.594;11.046;2023-11-19T00:26:56;8.93;;;4.47;;
42124;SDS011;27787;44.594;11.046;2023-11-19T00:29:40;10.48;;;4.00;;
42124;SDS011;27787;44.594;11.046;2023-11-19T00:32:24;11.48;;;4.95;;
42124;SDS011;27787;44.594;11.046;2023-11-19T00:35:09;12.30;;;5.00;;
42124;SDS011;27787;44.594;11.046;2023-11-19T00:37:59;15.77;;;5.70;;
42124;SDS011;27787;44.594;11.046;2023-11-19T00:40:44;9.80;;;5.13;;
42124;SDS011;27787;44.594;11.046;2023-11-19T00:43:28;12.32;;;5.20;;
42124;SDS011;27787;44.594;11.046;2023-11-19T00:46:12;10.45;;;5.40;;
42124;SDS011;27787;44.594;11.046;2023-11-19T00:48:57;11.90;;;6.63;;
42124;SDS011;27787;44.594;11.046;2023-11-19T00:54:28;12.55;;;5.95;;
42124;SDS011;27787;44.594;11.046;2023-11-19T00:57:12;11.48;;;5.10;;
42124;SDS011;27787;44.594;11.046;2023-11-19T00:59:56;14.13;;;6.28;;
42124;SDS011;27787;44.594;11.046;2023-11-19T01:02:41;9.73;;;4.82;;
42124;SDS011;27787;44.594;11.046;2023-11-19T01:05:25;11.18;;;6.38;;
42124;SDS011;27787;44.594;11.046;2023-11-19T01:08:10;13.32;;;6.25;;
42124;SDS011;27787;44.594;11.046;2023-11-19T01:10:54;15.10;;;6.15;;
42124;SDS011;27787;44.594;11.046;2023-11-19T01:13:38;11.88;;;5.57;;
42124;SDS011;27787;44.594;11.046;2023-11-19T01:16:22;10.20;;;5.03;;
42124;SDS011;27787;44.594;11.046;2023-11-19T01:19:06;11.95;;;5.60;;
42124;SDS011;27787;44.594;11.046;2023-11-19T01:21:51;12.63;;;6.10;;
42124;SDS011;27787;44.594;11.046;2023-11-19T01:24:35;13.27;;;6.03;;
42124;SDS011;27787;44.594;11.046;2023-11-19T01:27:19;10.43;;;6.13;;
42124;SDS011;27787;44.594;11.046;2023-11-19T01:30:04;16.08;;;5.97;;
42124;SDS011;27787;44.594;11.046;2023-11-19T01:32:49;12.40;;;5.95;;
42124;SDS011;27787;44.594;11.046;2023-11-19T01:35:33;13.60;;;6.15;;
42124;SDS011;27787;44.594;11.046;2023-11-19T01:38:17;15.57;;;7.20;;
42124;SDS011;27787;44.594;11.046;2023-11-19T01:41:01;13.35;;;5.90;;
42124;SDS011;27787;44.594;11.046;2023-11-19T01:43:47;14.52;;;5.80;;
42124;SDS011;27787;44.594;11.046;2023-11-19T01:46:31;13.60;;;6.53;;
42124;SDS011;27787;44.594;11.046;2023-11-19T01:49:18;18.23;;;6.70;;
42124;SDS011;27787;44.594;11.046;2023-11-19T01:52:04;13.95;;;6.22;;
42124;SDS011;27787;44.594;11.046;2023-11-19T01:54:48;10.80;;;5.20;;
42124;SDS011;27787;44.594;11.046;2023-11-19T01:57:34;11.95;;;5.05;;
42124;SDS011;27787;44.594;11.046;2023-11-19T02:00:21;8.32;;;4.20;;
42124;SDS011;27787;44.594;11.046;2023-11-19T02:03:08;11.98;;;4.53;;
42124;SDS011;27787;44.594;11.046;2023-11-19T02:05:53;7.38;;;3.55;;
42124;SDS011;27787;44.594;11.046;2023-11-19T02:08:37;7.70;;;4.30;;
42124;SDS011;27787;44.594;11.046;2023-11-19T02:11:22;10.02;;;5.15;;
42124;SDS011;27787;44.594;11.046;2023-11-19T02:14:07;13.18;;;5.15;;
42124;SDS011;27787;44.594;11.046;2023-11-19T02:16:52;10.68;;;5.55;;
42124;SDS011;27787;44.594;11.046;2023-11-19T02:19:36;12.65;;;5.45;;
42124;SDS011;27787;44.594;11.046;2023-11-19T02:22:22;8.95;;;4.85;;
42124;SDS011;27787;44.594;11.046;2023-11-19T02:25:07;17.67;;;4.97;;
42124;SDS011;27787;44.594;11.046;2023-11-19T02:27:57;13.00;;;5.53;;
42124;SDS011;27787;44.594;11.046;2023-11-19T02:30:43;9.63;;;4.90;;
42124;SDS011;27787;44.594;11.046;2023-11-19T02:33:28;14.35;;;5.65;;
42124;SDS011;27787;44.594;11.046;2023-11-19T02:36:13;12.30;;;5.53;;
42124;SDS011;27787;44.594;11.046;2023-11-19T02:38:57;11.05;;;5.15;;
42124;SDS011;27787;44.594;11.046;2023-11-19T02:41:42;12.75;;;4.55;;
42124;SDS011;27787;44.594;11.046;2023-11-19T02:44:26;9.10;;;4.53;;
42124;SDS011;27787;44.594;11.046;2023-11-19T02:47:13;12.70;;;4.78;;
42124;SDS011;27787;44.594;11.046;2023-11-19T02:49:57;8.73;;;4.68;;
42124;SDS011;27787;44.594;11.046;2023-11-19T02:52:41;10.82;;;5.22;;
42124;SDS011;27787;44.594;11.046;2023-11-19T02:55:26;12.87;;;5.53;;
42124;SDS011;27787;44.594;11.046;2023-11-19T02:58:14;10.52;;;5.28;;
42124;SDS011;27787;44.594;11.046;2023-11-19T03:01:08;12.25;;;5.28;;
42124;SDS011;27787;44.594;11.046;2023-11-19T03:04:07;14.95;;;5.00;;
42124;SDS011;27787;44.594;11.046;2023-11-19T03:06:54;8.80;;;4.40;;
42124;SDS011;27787;44.594;11.046;2023-11-19T03:09:39;10.95;;;5.25;;
42124;SDS011;27787;44.594;11.046;2023-11-19T03:12:24;13.77;;;5.10;;
42124;SDS011;27787;44.594;11.046;2023-11-19T03:15:08;10.45;;;5.13;;
42124;SDS011;27787;44.594;11.046;2023-11-19T03:17:55;10.75;;;4.80;;
42124;SDS011;27787;44.594;11.046;2023-11-19T03:20:39;8.82;;;4.70;;
42124;SDS011;27787;44.594;11.046;2023-11-19T03:23:24;11.05;;;5.05;;
42124;SDS011;27787;44.594;11.046;2023-11-19T03:26:12;9.07;;;4.88;;
42124;SDS011;27787;44.594;11.046;2023-11-19T03:28:57;12.83;;;5.53;;
42124;SDS011;27787;44.594;11.046;2023-11-19T03:31:44;10.02;;;4.32;;
42124;SDS011;27787;44.594;11.046;2023-11-19T03:34:28;10.98;;;4.90;;
42124;SDS011;27787;44.594;11.046;2023-11-19T03:37:12;12.82;;;5.03;;
42124;SDS011;27787;44.594;11.046;2023-11-19T03:40:01;11.35;;;4.93;;
42124;SDS011;27787;44.594;11.046;2023-11-19T03:42:46;11.65;;;4.45;;
42124;SDS011;27787;44.594;11.046;2023-11-19T03:45:30;9.30;;;5.20;;
42124;SDS011;27787;44.594;11.046;2023-11-19T03:48:15;9.02;;;4.45;;
42124;SDS011;27787;44.594;11.046;2023-11-19T03:51:00;9.85;;;4.25;;
42124;SDS011;27787;44.594;11.046;2023-11-19T03:53:45;9.43;;;4.13;;
42124;SDS011;27787;44.594;11.046;2023-11-19T03:56:30;8.18;;;4.28;;
42124;SDS011;27787;44.594;11.046;2023-11-19T03:59:15;9.68;;;4.40;;
42124;SDS011;27787;44.594;11.046;2023-11-19T04:01:59;8.82;;;4.32;;
42124;SDS011;27787;44.594;11.046;2023-11-19T04:04:44;9.27;;;4.68;;
42124;SDS011;27787;44.594;11.046;2023-11-19T04:07:29;8.93;;;4.30;;
42124;SDS011;27787;44.594;11.046;2023-11-19T04:10:13;12.35;;;5.28;;
42124;SDS011;27787;44.594;11.046;2023-11-19T04:12:59;7.90;;;4.43;;
42124;SDS011;27787;44.594;11.046;2023-11-19T04:15:45;7.90;;;3.92;;
42124;SDS011;27787;44.594;11.046;2023-11-19T04:18:29;7.43;;;4.05;;
42124;SDS011;27787;44.594;11.046;2023-11-19T04:21:13;12.07;;;4.60;;
42124;SDS011;27787;44.594;11.046;2023-11-19T04:23:57;12.38;;;3.65;;
42124;SDS011;27787;44.594;11.046;2023-11-19T04:26:42;6.65;;;3.35;;
42124;SDS011;27787;44.594;11.046;2023-11-19T04:29:29;7.80;;;4.05;;
42124;SDS011;27787;44.594;11.046;2023-11-19T04:32:14;8.05;;;4.32;;
42124;SDS011;27787;44.594;11.046;2023-11-19T04:34:59;9.40;;;4.72;;
42124;SDS011;27787;44.594;11.046;2023-11-19T04:37:43;9.43;;;4.90;;
42124;SDS011;27787;44.594;11.046;2023-11-19T04:40:28;9.95;;;4.85;;
42124;SDS011;27787;44.594;11.046;2023-11-19T04:43:12;9.27;;;4.88;;
42124;SDS011;27787;44.594;11.046;2023-11-19T04:45:56;13.02;;;4.55;;
42124;SDS011;27787;44.594;11.046;2023-11-19T04:48:41;6.88;;;4.05;;
42124;SDS011;27787;44.594;11.046;2023-11-19T04:51:25;9.55;;;4.57;;
42124;SDS011;27787;44.594;11.046;2023-11-19T04:54:09;10.73;;;4.53;;
42124;SDS011;27787;44.594;11.046;2023-11-19T04:56:53;10.55;;;4.32;;
42124;SDS011;27787;44.594;11.046;2023-11-19T04:59:37;10.30;;;4.13;;
42124;SDS011;27787;44.594;11.046;2023-11-19T05:02:22;8.75;;;4.88;;
42124;SDS011;27787;44.594;11.046;2023-11-19T05:05:06;9.43;;;5.03;;
42124;SDS011;27787;44.594;11.046;2023-11-19T05:07:51;7.97;;;4.45;;
42124;SDS011;27787;44.594;11.046;2023-11-19T05:10:35;10.52;;;5.38;;
42124;SDS011;27787;44.594;11.046;2023-11-19T05:13:22;7.05;;;4.20;;
42124;SDS011;27787;44.594;11.046;2023-11-19T05:16:06;9.68;;;4.15;;
42124;SDS011;27787;44.594;11.046;2023-11-19T05:18:50;11.20;;;4.80;;
42124;SDS011;27787;44.594;11.046;2023-11-19T05:21:34;10.77;;;4.70;;
42124;SDS011;27787;44.594;11.046;2023-11-19T05:24:19;11.20;;;5.10;;
42124;SDS011;27787;44.594;11.046;2023-11-19T05:27:03;9.70;;;5.00;;
42124;SDS011;27787;44.594;11.046;2023-11-19T05:29:48;12.82;;;5.55;;
42124;SDS011;27787;44.594;11.046;2023-11-19T05:32:32;10.27;;;4.78;;
42124;SDS011;27787;44.594;11.046;2023-11-19T05:35:16;11.50;;;5.70;;
42124;SDS011;27787;44.594;11.046;2023-11-19T05:38:01;8.10;;;4.18;;
42124;SDS011;27787;44.594;11.046;2023-11-19T05:40:46;8.77;;;3.92;;
42124;SDS011;27787;44.594;11.046;2023-11-19T05:43:32;9.73;;;4.47;;
42124;SDS011;27787;44.594;11.046;2023-11-19T05:46:17;8.30;;;4.05;;
42124;SDS011;27787;44.594;11.046;2023-11-19T05:49:01;9.20;;;4.22;;
42124;SDS011;27787;44.594;11.046;2023-11-19T05:51:45;7.35;;;3.70;;
42124;SDS011;27787;44.594;11.046;2023-11-19T05:54:30;10.23;;;3.33;;
42124;SDS011;27787;44.594;11.046;2023-11-19T05:57:15;7.88;;;3.60;;
42124;SDS011;27787;44.594;11.046;2023-11-19T06:00:03;9.10;;;2.97;;
42124;SDS011;27787;44.594;11.046;2023-11-19T06:02:55;6.20;;;2.90;;
42124;SDS011;27787;44.594;11.046;2023-11-19T06:05:40;11.23;;;3.75;;
42124;SDS011;27787;44.594;11.046;2023-11-19T06:08:24;6.55;;;3.22;;
42124;SDS011;27787;44.594;11.046;2023-11-19T06:11:10;8.23;;;2.80;;
42124;SDS011;27787;44.594;11.046;2023-11-19T06:14:02;7.85;;;3.97;;
42124;SDS011;27787;44.594;11.046;2023-11-19T06:16:49;7.43;;;3.40;;
42124;SDS011;27787;44.594;11.046;2023-11-19T06:19:33;12.85;;;4.18;;
42124;SDS011;27787;44.594;11.046;2023-11-19T06:22:17;8.50;;;3.45;;
42124;SDS011;27787;44.594;11.046;2023-11-19T06:25:01;8.50;;;3.58;;
42124;SDS011;27787;44.594;11.046;2023-11-19T06:27:51;6.50;;;3.38;;
42124;SDS011;27787;44.594;11.046;2023-11-19T06:30:35;7.53;;;3.60;;
42124;SDS011;27787;44.594;11.046;2023-11-19T06:33:20;9.88;;;3.70;;
42124;SDS011;27787;44.594;11.046;2023-11-19T06:36:04;8.90;;;3.63;;
42124;SDS011;27787;44.594;11.046;2023-11-19T06:38:48;10.00;;;3.55;;
42124;SDS011;27787;44.594;11.046;2023-11-19T06:41:32;7.20;;;3.25;;
42124;SDS011;27787;44.594;11.046;2023-11-19T06:44:16;7.50;;;3.75;;
42124;SDS011;27787;44.594;11.046;2023-11-19T06:47:01;7.00;;;3.60;;
42124;SDS011;27787;44.594;11.046;2023-11-19T06:49:46;10.70;;;3.72;;
42124;SDS011;27787;44.594;11.046;2023-11-19T06:52:30;10.60;;;4.00;;
42124;SDS011;27787;44.594;11.046;2023-11-19T06:55:15;7.05;;;3.47;;
42124;SDS011;27787;44.594;11.046;2023-11-19T06:57:59;7.07;;;3.83;;
42124;SDS011;27787;44.594;11.046;2023-11-19T07:00:46;9.05;;;4.07;;
42124;SDS011;27787;44.594;11.046;2023-11-19T07:03:31;11.77;;;3.75;;
42124;SDS011;27787;44.594;11.046;2023-11-19T07:06:14;8.70;;;3.47;;
42124;SDS011;27787;44.594;11.046;2023-11-19T07:08:59;7.97;;;3.45;;
42124;SDS011;27787;44.594;11.046;2023-11-19T07:11:42;7.35;;;3.55;;
42124;SDS011;27787;44.594;11.046;2023-11-19T07:14:27;5.85;;;3.15;;
42124;SDS011;27787;44.594;11.046;2023-11-19T07:17:12;5.77;;;2.93;;
42124;SDS011;27787;44.594;11.046;2023-11-19T07:19:56;6.97;;;3.40;;
42124;SDS011;27787;44.594;11.046;2023-11-19T07:22:43;6.80;;;3.45;;
42124;SDS011;27787;44.594;11.046;2023-11-19T07:25:29;6.78;;;3.13;;
42124;SDS011;27787;44.594;11.046;2023-11-19T07:28:14;8.35;;;3.30;;
42124;SDS011;27787;44.594;11.046;2023-11-19T07:30:58;5.47;;;2.75;;
42124;SDS011;27787;44.594;11.046;2023-11-19T07:33:43;6.68;;;2.80;;
42124;SDS011;27787;44.594;11.046;2023-11-19T07:36:28;5.68;;;3.10;;
42124;SDS011;27787;44.594;11.046;2023-11-19T07:39:12;5.80;;;3.20;;
42124;SDS011;27787;44.594;11.046;2023-11-19T07:41:57;10.45;;;3.15;;
42124;SDS011;27787;44.594;11.046;2023-11-19T07:44:42;6.32;;;2.60;;
42124;SDS011;27787;44.594;11.046;2023-11-19T07:47:27;7.68;;;2.50;;
42124;SDS011;27787;44.594;11.046;2023-11-19T07:50:12;6.03;;;2.53;;
42124;SDS011;27787;44.594;11.046;2023-11-19T07:53:01;2.88;;;1.50;;
42124;SDS011;27787;44.594;11.046;2023-11-19T07:55:47;4.72;;;1.92;;
42124;SDS011;27787;44.594;11.046;2023-11-19T07:58:31;3.90;;;2.33;;
42124;SDS011;27787;44.594;11.046;2023-11-19T08:01:16;8.55;;;2.13;;
42124;SDS011;27787;44.594;11.046;2023-11-19T08:04:00;9.15;;;3.58;;
42124;SDS011;27787;44.594;11.046;2023-11-19T08:06:45;8.15;;;3.38;;
42124;SDS011;27787;44.594;11.046;2023-11-19T08:09:30;5.28;;;2.80;;
42124;SDS011;27787;44.594;11.046;2023-11-19T08:12:14;4.18;;;2.15;;
42124;SDS011;27787;44.594;11.046;2023-11-19T08:17:45;5.68;;;2.55;;
42124;SDS011;27787;44.594;11.046;2023-11-19T08:20:29;7.63;;;3.30;;
42124;SDS011;27787;44.594;11.046;2023-11-19T08:23:13;5.72;;;3.20;;
42124;SDS011;27787;44.594;11.046;2023-11-19T08:25:57;8.30;;;3.00;;
42124;SDS011;27787;44.594;11.046;2023-11-19T08:28:41;7.00;;;2.83;;
42124;SDS011;27787;44.594;11.046;2023-11-19T08:31:25;4.68;;;2.30;;
42124;SDS011;27787;44.594;11.046;2023-11-19T08:34:10;8.82;;;3.40;;
42124;SDS011;27787;44.594;11.046;2023-11-19T08:36:55;12.93;;;3.13;;
42124;SDS011;27787;44.594;11.046;2023-11-19T08:39:39;4.82;;;2.42;;
42124;SDS011;27787;44.594;11.046;2023-11-19T08:45:09;4.60;;;2.58;;
42124;SDS011;27787;44.594;11.046;2023-11-19T08:47:54;5.65;;;2.53;;
42124;SDS011;27787;44.594;11.046;2023-11-19T08:50:38;6.85;;;2.60;;
42124;SDS011;27787;44.594;11.046;2023-11-19T08:53:22;4.68;;;2.20;;
42124;SDS011;27787;44.594;11.046;2023-11-19T08:56:07;4.40;;;2.42;;
42124;SDS011;27787;44.594;11.046;2023-11-19T08:58:51;6.70;;;2.53;;
42124;SDS011;27787;44.594;11.046;2023-11-19T09:01:35;4.32;;;2.42;;
42124;SDS011;27787;44.594;11.046;2023-11-19T09:04:20;8.35;;;2.65;;
42124;SDS011;27787;44.594;11.046;2023-11-19T09:09:49;4.57;;;1.95;;
42124;SDS011;27787;44.594;11.046;2023-11-19T09:12:34;4.00;;;2.13;;
42124;SDS011;27787;44.594;11.046;2023-11-19T09:15:19;4.35;;;2.47;;
42124;SDS011;27787;44.594;11.046;2023-11-19T09:18:02;3.95;;;2.15;;
42124;SDS011;27787;44.594;11.046;2023-11-19T09:20:48;3.03;;;1.88;;
42124;SDS011;27787;44.594;11.046;2023-11-19T09:23:32;5.88;;;2.00;;
42124;SDS011;27787;44.594;11.046;2023-11-19T09:26:20;3.47;;;1.77;;
42124;SDS011;27787;44.594;11.046;2023-11-19T09:29:04;3.83;;;1.90;;
42124;SDS011;27787;44.594;11.046;2023-11-19T09:31:49;6.43;;;2.47;;
42124;SDS011;27787;44.594;11.046;2023-11-19T09:34:33;6.40;;;2.40;;
42124;SDS011;27787;44.594;11.046;2023-11-19T09:37:17;4.05;;;2.45;;
42124;SDS011;27787;44.594;11.046;2023-11-19T09:40:00;6.47;;;2.63;;
42124;SDS011;27787;44.594;11.046;2023-11-19T09:42:44;6.50;;;3.10;;
42124;SDS011;27787;44.594;11.046;2023-11-19T09:45:31;6.25;;;2.70;;
42124;SDS011;27787;44.594;11.046;2023-11-19T09:48:24;6.22;;;2.75;;
42124;SDS011;27787;44.594;11.046;2023-11-19T09:51:09;4.95;;;2.70;;
42124;SDS011;27787;44.594;11.046;2023-11-19T09:53:54;4.93;;;2.55;;
42124;SDS011;27787;44.594;11.046;2023-11-19T09:56:39;5.78;;;3.28;;
42124;SDS011;27787;44.594;11.046;2023-11-19T09:59:24;8.82;;;2.97;;
42124;SDS011;27787;44.594;11.046;2023-11-19T10:02:09;7.80;;;3.50;;
42124;SDS011;27787;44.594;11.046;2023-11-19T10:04:54;6.35;;;3.10;;
42124;SDS011;27787;44.594;11.046;2023-11-19T10:07:39;7.88;;;2.97;;
42124;SDS011;27787;44.594;11.046;2023-11-19T10:10:23;6.93;;;3.30;;
42124;SDS011;27787;44.594;11.046;2023-11-19T10:13:08;4.85;;;2.92;;
42124;SDS011;27787;44.594;11.046;2023-11-19T10:15:52;6.30;;;2.88;;
42124;SDS011;27787;44.594;11.046;2023-11-19T10:18:37;5.32;;;3.30;;
42124;SDS011;27787;44.594;11.046;2023-11-19T10:21:21;5.47;;;2.90;;
42124;SDS011;27787;44.594;11.046;2023-11-19T10:24:06;7.63;;;3.00;;
42124;SDS011;27787;44.594;11.046;2023-11-19T10:26:50;5.47;;;2.80;;
42124;SDS011;27787;44.594;11.046;2023-11-19T10:29:38;6.90;;;3.45;;
42124;SDS011;27787;44.594;11.046;2023-11-19T10:32:22;5.35;;;3.45;;
42124;SDS011;27787;44.594;11.046;2023-11-19T10:35:06;4.65;;;3.08;;
42124;SDS011;27787;44.594;11.046;2023-11-19T10:37:51;6.22;;;3.40;;
42124;SDS011;27787;44.594;11.046;2023-11-19T10:40:38;6.32;;;3.35;;
42124;SDS011;27787;44.594;11.046;2023-11-19T10:43:25;6.03;;;3.60;;
42124;SDS011;27787;44.594;11.046;2023-11-19T10:46:11;7.00;;;2.95;;
42124;SDS011;27787;44.594;11.046;2023-11-19T10:48:56;5.45;;;2.88;;
42124;SDS011;27787;44.594;11.046;2023-11-19T10:51:42;6.53;;;3.60;;
42124;SDS011;27787;44.594;11.046;2023-11-19T10:54:30;4.75;;;3.17;;
42124;SDS011;27787;44.594;11.046;2023-11-19T10:57:18;6.05;;;3.40;;
42124;SDS011;27787;44.594;11.046;2023-11-19T11:00:05;5.45;;;3.05;;
42124;SDS011;27787;44.594;11.046;2023-11-19T11:02:59;7.53;;;3.15;;
42124;SDS011;27787;44.594;11.046;2023-11-19T11:05:46;5.05;;;3.00;;
42124;SDS011;27787;44.594;11.046;2023-11-19T11:08:31;6.70;;;3.15;;
42124;SDS011;27787;44.594;11.046;2023-11-19T11:11:19;5.88;;;3.53;;
42124;SDS011;27787;44.594;11.046;2023-11-19T11:14:07;5.38;;;3.35;;
42124;SDS011;27787;44.594;11.046;2023-11-19T11:16:53;7.55;;;3.38;;
42124;SDS011;27787;44.594;11.046;2023-11-19T11:19:41;4.80;;;2.67;;
42124;SDS011;27787;44.594;11.046;2023-11-19T11:22:27;5.00;;;2.75;;
42124;SDS011;27787;44.594;11.046;2023-11-19T11:25:16;6.82;;;3.22;;
42124;SDS011;27787;44.594;11.046;2023-11-19T11:28:34;6.90;;;3.10;;
42124;SDS011;27787;44.594;11.046;2023-11-19T11:37:45;8.10;;;2.90;;
42124;SDS011;27787;44.594;11.046;2023-11-19T11:40:35;4.60;;;2.60;;
42124;SDS011;27787;44.594;11.046;2023-11-19T11:49:18;8.13;;;3.50;;
42124;SDS011;27787;44.594;11.046;2023-11-19T11:52:09;11.75;;;3.75;;
42124;SDS011;27787;44.594;11.046;2023-11-19T11:55:02;9.18;;;4.10;;
42124;SDS011;27787;44.594;11.046;2023-11-19T11:57:50;8.25;;;3.47;;
42124;SDS011;27787;44.594;11.046;2023-11-19T12:00:38;6.45;;;3.42;;
42124;SDS011;27787;44.594;11.046;2023-11-19T12:03:23;8.43;;;4.28;;
42124;SDS011;27787;44.594;11.046;2023-11-19T12:06:07;11.15;;;4.82;;
42124;SDS011;27787;44.594;11.046;2023-11-19T12:08:51;9.00;;;4.25;;
42124;SDS011;27787;44.594;11.046;2023-11-19T12:11:36;6.85;;;3.83;;
42124;SDS011;27787;44.594;11.046;2023-11-19T12:14:42;7.67;;;3.40;;
42124;SDS011;27787;44.594;11.046;2023-11-19T12:17:55;9.05;;;3.30;;
42124;SDS011;27787;44.594;11.046;2023-11-19T12:20:39;5.05;;;3.03;;
42124;SDS011;27787;44.594;11.046;2023-11-19T12:23:23;8.80;;;3.63;;
42124;SDS011;27787;44.594;11.046;2023-11-19T12:26:07;5.57;;;3.00;;
42124;SDS011;27787;44.594;11.046;2023-11-19T12:28:58;7.35;;;3.22;;
42124;SDS011;27787;44.594;11.046;2023-11-19T12:31:44;5.68;;;3.08;;
42124;SDS011;27787;44.594;11.046;2023-11-19T12:34:28;11.07;;;3.50;;
42124;SDS011;27787;44.594;11.046;2023-11-19T12:37:12;5.35;;;3.15;;
42124;SDS011;27787;44.594;11.046;2023-11-19T12:39:57;6.68;;;3.30;;
42124;SDS011;27787;44.594;11.046;2023-11-19T12:42:42;8.90;;;3.40;;
42124;SDS011;27787;44.594;11.046;2023-11-19T12:45:35;6.13;;;2.97;;
42124;SDS011;27787;44.594;11.046;2023-11-19T12:48:20;7.25;;;3.20;;
42124;SDS011;27787;44.594;11.046;2023-11-19T12:51:04;5.35;;;2.70;;
42124;SDS011;27787;44.594;11.046;2023-11-19T12:53:49;6.28;;;2.75;;
42124;SDS011;27787;44.594;11.046;2023-11-19T12:56:38;6.63;;;2.65;;
42124;SDS011;27787;44.594;11.046;2023-11-19T12:59:22;5.45;;;2.30;;
42124;SDS011;27787;44.594;11.046;2023-11-19T13:02:06;8.68;;;3.28;;
42124;SDS011;27787;44.594;11.046;2023-11-19T13:04:51;5.90;;;2.83;;
42124;SDS011;27787;44.594;11.046;2023-11-19T13:07:35;5.82;;;2.58;;
42124;SDS011;27787;44.594;11.046;2023-11-19T13:10:19;12.35;;;2.50;;
42124;SDS011;27787;44.594;11.046;2023-11-19T13:13:03;6.47;;;2.33;;
42124;SDS011;27787;44.594;11.046;2023-11-19T13:15:49;8.00;;;3.05;;
42124;SDS011;27787;44.594;11.046;2023-11-19T13:18:33;5.57;;;2.60;;
42124;SDS011;27787;44.594;11.046;2023-11-19T13:21:17;6.35;;;3.25;;
42124;SDS011;27787;44.594;11.046;2023-11-19T13:24:02;6.60;;;3.70;;
42124;SDS011;27787;44.594;11.046;2023-11-19T13:26:46;7.40;;;3.63;;
42124;SDS011;27787;44.594;11.046;2023-11-19T13:29:31;5.57;;;2.72;;
42124;SDS011;27787;44.594;11.046;2023-11-19T13:32:15;7.05;;;3.30;;
42124;SDS011;27787;44.594;11.046;2023-11-19T13:34:59;11.90;;;3.60;;
42124;SDS011;27787;44.594;11.046;2023-11-19T13:37:44;5.90;;;3.22;;
42124;SDS011;27787;44.594;11.046;2023-11-19T13:40:30;6.10;;;2.72;;
42124;SDS011;27787;44.594;11.046;2023-11-19T13:43:14;6.38;;;3.47;;
42124;SDS011;27787;44.594;11.046;2023-11-19T13:45:58;8.60;;;3.13;;
42124;SDS011;27787;44.594;11.046;2023-11-19T13:48:42;6.68;;;3.25;;
42124;SDS011;27787;44.594;11.046;2023-11-19T13:51:27;6.40;;;3.28;;
42124;SDS011;27787;44.594;11.046;2023-11-19T13:54:11;5.45;;;2.47;;
42124;SDS011;27787;44.594;11.046;2023-11-19T13:56:58;6.93;;;3.00;;
42124;SDS011;27787;44.594;11.046;2023-11-19T13:59:47;6.85;;;3.13;;
42124;SDS011;27787;44.594;11.046;2023-11-19T14:02:34;6.57;;;2.80;;
42124;SDS011;27787;44.594;11.046;2023-11-19T14:05:18;9.23;;;2.65;;
42124;SDS011;27787;44.594;11.046;2023-11-19T14:08:03;5.25;;;2.13;;
42124;SDS011;27787;44.594;11.046;2023-11-19T14:10:54;6.72;;;2.22;;
42124;SDS011;27787;44.594;11.046;2023-11-19T14:13:39;4.97;;;2.28;;
42124;SDS011;27787;44.594;11.046;2023-11-19T14:16:27;7.38;;;2.95;;
42124;SDS011;27787;44.594;11.046;2023-11-19T14:19:11;8.40;;;2.88;;
42124;SDS011;27787;44.594;11.046;2023-11-19T14:21:55;3.47;;;1.65;;
42124;SDS011;27787;44.594;11.046;2023-11-19T14:24:39;6.40;;;2.45;;
42124;SDS011;27787;44.594;11.046;2023-11-19T14:27:25;9.32;;;2.35;;
42124;SDS011;27787;44.594;11.046;2023-11-19T14:30:10;8.55;;;2.53;;
42124;SDS011;27787;44.594;11.046;2023-11-19T14:32:55;5.20;;;2.47;;
42124;SDS011;27787;44.594;11.046;2023-11-19T14:35:39;7.80;;;2.97;;
42124;SDS011;27787;44.594;11.046;2023-11-19T14:38:23;7.55;;;3.78;;
42124;SDS011;27787;44.594;11.046;2023-11-19T14:41:08;8.38;;;3.30;;
42124;SDS011;27787;44.594;11.046;2023-11-19T14:43:52;7.68;;;3.22;;
42124;SDS011;27787;44.594;11.046;2023-11-19T14:46:36;7.57;;;3.38;;
42124;SDS011;27787;44.594;11.046;2023-11-19T14:49:20;7.72;;;3.30;;
42124;SDS011;27787;44.594;11.046;2023-11-19T14:52:04;7.28;;;3.47;;
42124;SDS011;27787;44.594;11.046;2023-11-19T14:54:49;13.82;;;3.33;;
42124;SDS011;27787;44.594;11.046;2023-11-19T14:57:35;6.40;;;2.88;;
42124;SDS011;27787;44.594;11.046;2023-11-19T15:00:20;7.15;;;3.13;;
42124;SDS011;27787;44.594;11.046;2023-11-19T15:03:04;12.05;;;3.42;;
42124;SDS011;27787;44.594;11.046;2023-11-19T15:05:50;9.43;;;3.15;;
42124;SDS011;27787;44.594;11.046;2023-11-19T15:08:35;7.15;;;3.42;;
42124;SDS011;27787;44.594;11.046;2023-11-19T15:11:19;5.25;;;2.92;;
42124;SDS011;27787;44.594;11.046;2023-11-19T15:14:03;11.60;;;3.95;;
42124;SDS011;27787;44.594;11.046;2023-11-19T15:16:47;6.65;;;3.22;;
42124;SDS011;27787;44.594;11.046;2023-11-19T15:19:35;11.73;;;3.85;;
42124;SDS011;27787;44.594;11.046;2023-11-19T15:22:19;9.40;;;3.42;;
42124;SDS011;27787;44.594;11.046;2023-11-19T15:25:03;6.30;;;3.50;;
42124;SDS011;27787;44.594;11.046;2023-11-19T15:27:47;11.40;;;4.03;;
42124;SDS011;27787;44.594;11.046;2023-11-19T15:30:32;7.75;;;3.63;;
42124;SDS011;27787;44.594;11.046;2023-11-19T15:33:16;7.15;;;3.75;;
42124;SDS011;27787;44.594;11.046;2023-11-19T15:36:00;7.40;;;4.45;;
42124;SDS011;27787;44.594;11.046;2023-11-19T15:38:46;11.18;;;3.95;;
42124;SDS011;27787;44.594;11.046;2023-11-19T15:41:30;14.40;;;5.35;;
42124;SDS011;27787;44.594;11.046;2023-11-19T15:44:15;8.43;;;4.60;;
42124;SDS011;27787;44.594;11.046;2023-11-19T15:46:59;13.40;;;4.65;;
42124;SDS011;27787;44.594;11.046;2023-11-19T15:49:44;10.00;;;4.43;;
42124;SDS011;27787;44.594;11.046;2023-11-19T15:52:29;8.45;;;4.45;;
42124;SDS011;27787;44.594;11.046;2023-11-19T15:55:14;12.93;;;6.22;;
42124;SDS011;27787;44.594;11.046;2023-11-19T15:57:57;14.40;;;5.93;;
42124;SDS011;27787;44.594;11.046;2023-11-19T16:00:43;9.85;;;4.68;;
42124;SDS011;27787;44.594;11.046;2023-11-19T16:03:29;16.95;;;5.35;;
42124;SDS011;27787;44.594;11.046;2023-11-19T16:06:14;10.15;;;5.13;;
42124;SDS011;27787;44.594;11.046;2023-11-19T16:08:58;9.45;;;4.78;;
42124;SDS011;27787;44.594;11.046;2023-11-19T16:11:43;9.98;;;5.43;;
42124;SDS011;27787;44.594;11.046;2023-11-19T16:14:27;10.20;;;5.32;;
42124;SDS011;27787;44.594;11.046;2023-11-19T16:17:11;11.68;;;6.03;;
42124;SDS011;27787;44.594;11.046;2023-11-19T16:19:56;17.42;;;6.05;;
42124;SDS011;27787;44.594;11.046;2023-11-19T16:22:41;13.15;;;5.03;;
42124;SDS011;27787;44.594;11.046;2023-11-19T16:25:28;9.77;;;5.90;;
42124;SDS011;27787;44.594;11.046;2023-11-19T16:28:12;13.10;;;6.50;;
42124;SDS011;27787;44.594;11.046;2023-11-19T16:30:58;11.52;;;5.65;;
42124;SDS011;27787;44.594;11.046;2023-11-19T16:33:42;12.90;;;6.13;;
42124;SDS011;27787;44.594;11.046;2023-11-19T16:36:26;14.70;;;6.07;;
42124;SDS011;27787;44.594;11.046;2023-11-19T16:39:11;11.93;;;6.10;;
42124;SDS011;27787;44.594;11.046;2023-11-19T16:41:57;14.68;;;7.88;;